Time;durP1;ratioP1;P1;durP2;ratioP2;P2;SDS_P1;SDS_P2;PMS_P1;PMS_P2;Temp;Humidity;BMP_temperature;BMP_pressure;BME280_temperature;BME280_humidity;BME280_pressure;Samples;Min_cycle;Max_cycle;Signal;HPM_P1;HPM_P2
2021/04/26 00:01:11;;;;;;;;;;;;;;;;;;4423091;32;20035;-84
2021/04/26 00:03:41;;;;;;;;;;;;;;;;;;4427328;32;19957;-82
2021/04/26 00:06:09;;;;;;;;;;;;;;;;;;4430014;32;20020;-83
2021/04/26 00:08:37;;;;;;;;;;;;;;;;;;4426727;32;20108;-83
2021/04/26 00:11:05;;;;;;;;;;;;;;;;;;4426035;32;20056;-83
2021/04/26 00:13:33;;;;;;;;;;;;;;;;;;4438186;32;19953;-83
2021/04/26 00:16:04;;;;;;;;;;;;;;;;;;4427947;32;20004;-83
2021/04/26 00:18:32;;;;;;;;;;;;;;;;;;4420655;32;20017;-83
2021/04/26 00:21:00;;;;;;;;;;;;;;;;;;4430229;32;19957;-82
2021/04/26 00:23:28;;;;;;;;;;;;;;;;;;4440650;32;20588;-82
2021/04/26 00:25:56;;;;;;;;;;;;;;;;;;4424144;32;20024;-83
2021/04/26 00:28:27;;;;;;;;;;;;;;;;;;4422474;32;20061;-83
2021/04/26 00:30:55;;;;;;;;;;;;;;;;;;4416302;32;19961;-84
2021/04/26 00:33:23;;;;;;;;;;;;;;;;;;4426951;32;20017;-83
2021/04/26 00:35:51;;;;;;;;;;;;;;;;;;4418608;32;19949;-83
2021/04/26 00:38:19;;;;;;;;;;;;;;;;;;4411985;32;21940;-82
2021/04/26 00:40:47;;;;;;;;;;;;;;;;;;4436521;32;20311;-82
2021/04/26 00:43:15;;;;;;;;;;;;;;;;;;4437192;32;19969;-83
2021/04/26 00:45:43;;;;;;;;;;;;;;;;;;4439426;32;20012;-83
2021/04/26 00:48:11;;;;;;;;;;;;;;;;;;4425866;32;20506;-83
2021/04/26 00:50:42;;;;;;;;;;;;;;;;;;4429731;32;20679;-82
2021/04/26 00:54:03;;;;;;;;;;;;;;;;;;4456129;31;19953;-83
2021/04/26 00:56:31;;;;;;;;;;;;;;;;;;4467808;32;19961;-82
2021/04/26 00:58:59;;;;;;;;;;;;;;;;;;4457290;32;19976;-83
2021/04/26 01:01:27;;;;;;;;;;;;;;;;;;4455770;32;19972;-83
2021/04/26 01:03:56;;;;;;;;;;;;;;;;;;4452763;32;20672;-82
2021/04/26 01:06:23;;;;;;;;;;;;;;;;;;4448656;32;20136;-82
2021/04/26 01:08:52;;;;;;;;;;;;;;;;;;4448494;32;20001;-83
2021/04/26 01:11:20;;;;;;;;;;;;;;;;;;4451743;32;19965;-83
2021/04/26 01:13:48;;;;;;;;;;;;;;;;;;4454836;32;20344;-83
2021/04/26 01:16:16;;;;;;;;;;;;;;;;;;4455419;32;20013;-83
2021/04/26 01:18:45;;;;;;;;;;;;;;;;;;4453221;32;20052;-82
2021/04/26 01:21:29;;;;;;;;;;;;;;;;;;4449097;32;19957;-82
2021/04/26 01:24:01;;;;;;;;;;;;;;;;;;4431942;32;20020;-83
2021/04/26 01:26:29;;;;;;;;;;;;;;;;;;4438100;32;19992;-83
2021/04/26 01:28:58;;;;;;;;;;;;;;;;;;4436699;32;20049;-83
2021/04/26 01:31:26;;;;;;;;;;;;;;;;;;4432475;32;20532;-82
2021/04/26 01:33:54;;;;;;;;;;;;;;;;;;4444185;32;19949;-83
2021/04/26 01:36:33;;;;;;;;;;;;;;;;;;4448323;32;20020;-82
2021/04/26 01:39:04;;;;;;;;;;;;;;;;;;4445620;32;20484;-82
2021/04/26 01:41:32;;;;;;;;;;;;;;;;;;4442145;32;20351;-83
2021/04/26 01:44:00;;;;;;;;;;;;;;;;;;4431658;32;20032;-84
2021/04/26 01:46:28;;;;;;;;;;;;;;;;;;4433667;32;20005;-83
2021/04/26 01:48:57;;;;;;;;;;;;;;;;;;4434423;32;20332;-83
2021/04/26 01:51:25;;;;;;;;;;;;;;;;;;4431455;32;20402;-83
2021/04/26 01:53:56;;;;;;;;;;;;;;;;;;4439894;32;20351;-83
2021/04/26 01:56:24;;;;;;;;;;;;;;;;;;4428897;32;20024;-84
2021/04/26 01:58:53;;;;;;;;;;;;;;;;;;4428019;32;20356;-84
2021/04/26 02:01:21;;;;;;;;;;;;;;;;;;4433684;32;20876;-83
2021/04/26 02:03:49;;;;;;;;;;;;;;;;;;4438421;32;19993;-83
2021/04/26 02:06:20;;;;;;;;;;;;;;;;;;4436082;32;19965;-83
2021/04/26 02:08:48;;;;;;;;;;;;;;;;;;4429580;32;19957;-83
2021/04/26 02:11:17;;;;;;;;;;;;;;;;;;4436428;32;19954;-82
2021/04/26 02:14:02;;;;;;;;;;;;;;;;;;4441911;31;20055;-83
2021/04/26 02:16:30;;;;;;;;;;;;;;;;;;4436848;32;20012;-84
2021/04/26 02:18:58;;;;;;;;;;;;;;;;;;4436442;32;20048;-84
2021/04/26 02:21:27;;;;;;;;;;;;;;;;;;4435795;32;19997;-83
2021/04/26 02:23:56;;;;;;;;;;;;;;;;;;4437815;32;19989;-82
2021/04/26 02:26:24;;;;;;;;;;;;;;;;;;4444089;32;19997;-82
2021/04/26 02:28:52;;;;;;;;;;;;;;;;;;4444922;32;20179;-83
2021/04/26 02:31:20;;;;;;;;;;;;;;;;;;4436315;32;20004;-83
2021/04/26 02:34:03;;;;;;;;;;;;;;;;;;4452269;31;19953;-82
2021/04/26 02:36:36;;;;;;;;;;;;;;;;;;4430966;32;20336;-82
2021/04/26 02:39:04;;;;;;;;;;;;;;;;;;4428456;32;20005;-83
2021/04/26 02:41:33;;;;;;;;;;;;;;;;;;4430994;32;20062;-82
2021/04/26 02:44:06;;;;;;;;;;;;;;;;;;4436339;32;19969;-82
2021/04/26 02:46:35;;;;;;;;;;;;;;;;;;4426721;32;20015;-82
2021/04/26 02:49:03;;;;;;;;;;;;;;;;;;4429450;32;20020;-83
2021/04/26 02:51:31;;;;;;;;;;;;;;;;;;4429453;32;20158;-82
2021/04/26 02:54:14;;;;;;;;;;;;;;;;;;4452114;31;20295;-82
2021/04/26 02:56:43;;;;;;;;;;;;;;;;;;4438437;32;20018;-83
2021/04/26 02:59:11;;;;;;;;;;;;;;;;;;4440064;32;20074;-82
2021/04/26 03:01:41;;;;;;;;;;;;;;;;;;4438947;32;20454;-82
2021/04/26 03:04:13;;;;;;;;;;;;;;;;;;4442276;32;20035;-83
2021/04/26 03:06:41;;;;;;;;;;;;;;;;;;4436827;32;20008;-83
2021/04/26 03:09:13;;;;;;;;;;;;;;;;;;4440233;32;20486;-82
2021/04/26 03:11:43;;;;;;;;;;;;;;;;;;4482824;26;19970;-96
2021/04/26 03:14:28;;;;;;;;;;;;;;;;;;4414928;32;19962;-95
2021/04/26 03:17:09;;;;;;;;;;;;;;;;;;4414965;32;19965;-96
2021/04/26 03:19:47;;;;;;;;;;;;;;;;;;4418834;32;19943;-95
2021/04/26 03:22:20;;;;;;;;;;;;;;;;;;4415881;32;20040;-96
2021/04/26 03:24:48;;;;;;;;;;;;;;;;;;4410404;32;19951;-96
2021/04/26 03:27:22;;;;;;;;;;;;;;;;;;4415464;32;20333;-95
2021/04/26 03:30:16;;;;;;;;;;;;;;;;;;4417566;32;19954;-95
2021/04/26 03:33:01;;;;;;;;;;;;;;;;;;4409880;32;19964;-95
2021/04/26 03:35:32;;;;;;;;;;;;;;;;;;4417997;32;19992;-96
2021/04/26 03:38:16;;;;;;;;;;;;;;;;;;4414951;32;19957;-95
2021/04/26 03:40:57;;;;;;;;;;;;;;;;;;;;;
2021/04/26 03:43:33;;;;;;;;;;;;;;;;;;4416744;32;20005;-95
2021/04/26 03:46:07;;;;;;;;;;;;;;;;;;4411383;32;19946;-96
2021/04/26 03:48:43;;;;;;;;;;;;;;;;;;4416332;32;19942;-95
2021/04/26 03:51:24;;;;;;;;;;;;;;;;;;4413303;32;19951;-95
2021/04/26 03:54:07;;;;;;;;;;;;;;;;;;4415429;32;19968;-95
2021/04/26 03:56:36;;;;;;;;;;;;;;;;;;4413376;32;20055;-95
2021/04/26 03:59:04;;;;;;;;;;;;;;;;;;4417002;32;19986;-96
2021/04/26 04:01:38;;;;;;;;;;;;;;;;;;4415500;32;19953;-96
2021/04/26 04:04:20;;;;;;;;;;;;;;;;;;4412628;32;20008;-96
2021/04/26 04:07:03;;;;;;;;;;;;;;;;;;4405596;32;19950;-95
2021/04/26 04:09:37;;;;;;;;;;;;;;;;;;4406834;32;19958;-96
2021/04/26 04:12:12;;;;;;;;;;;;;;;;;;4404377;32;20029;-96
2021/04/26 04:14:40;;;;;;;;;;;;;;;;;;4405887;32;19950;-96
2021/04/26 04:17:14;;;;;;;;;;;;;;;;;;4406509;32;19958;-95
2021/04/26 04:19:49;;;;;;;;;;;;;;;;;;4399323;32;19964;-96
2021/04/26 04:22:32;;;;;;;;;;;;;;;;;;4397873;32;20029;-95
2021/04/26 04:25:01;;;;;;;;;;;;;;;;;;4400257;32;20027;-96
2021/04/26 04:27:35;;;;;;;;;;;;;;;;;;4407908;32;19938;-95
2021/04/26 04:30:09;;;;;;;;;;;;;;;;;;4406251;32;19951;-95
2021/04/26 04:32:38;;;;;;;;;;;;;;;;;;4402204;32;19942;-95
2021/04/26 04:35:11;;;;;;;;;;;;;;;;;;4406548;32;19990;-96
2021/04/26 04:37:45;;;;;;;;;;;;;;;;;;4405645;32;19965;-95
2021/04/26 04:40:21;;;;;;;;;;;;;;;;;;4394597;32;19978;-96
2021/04/26 04:42:51;;;;;;;;;;;;;;;;;;4402283;32;19984;-94
2021/04/26 04:45:24;;;;;;;;;;;;;;;;;;4400550;32;20018;-96
2021/04/26 04:47:55;;;;;;;;;;;;;;;;;;4403150;32;19954;-95
2021/04/26 04:50:33;;;;;;;;;;;;;;;;;;4401857;32;20032;-96
2021/04/26 04:53:09;;;;;;;;;;;;;;;;;;4399614;32;20022;-96
2021/04/26 04:55:44;;;;;;;;;;;;;;;;;;4400516;32;20035;-95
2021/04/26 04:58:17;;;;;;;;;;;;;;;;;;4401081;32;19989;-94
2021/04/26 05:00:51;;;;;;;;;;;;;;;;;;4402072;32;19990;-95
2021/04/26 05:03:24;;;;;;;;;;;;;;;;;;4399701;32;20000;-94
2021/04/26 05:06:02;;;;;;;;;;;;;;;;;;4396530;32;19976;-94
2021/04/26 05:08:49;;;;;;;;;;;;;;;;;;4405606;32;20327;-95
2021/04/26 05:11:28;;;;;;;;;;;;;;;;;;4403836;32;21470;-95
2021/04/26 05:13:57;;;;;;;;;;;;;;;;;;4400028;32;20021;-96
2021/04/26 05:16:31;;;;;;;;;;;;;;;;;;4401676;32;20366;-96
2021/04/26 05:19:21;;;;;;;;;;;;;;;;;;4403372;32;19994;-95
2021/04/26 05:21:54;;;;;;;;;;;;;;;;;;4401965;32;19988;-96
2021/04/26 05:24:24;;;;;;;;;;;;;;;;;;4397173;32;19968;-95
2021/04/26 05:27:03;;;;;;;;;;;;;;;;;;4405429;32;19974;-96
2021/04/26 05:29:33;;;;;;;;;;;;;;;;;;4404390;32;19961;-95
2021/04/26 05:32:03;;;;;;;;;;;;;;;;;;4402811;32;19947;-96
2021/04/26 05:34:34;;;;;;;;;;;;;;;;;;4403833;32;19958;-95
2021/04/26 05:37:06;;;;;;;;;;;;;;;;;;4402532;32;20378;-94
2021/04/26 05:39:36;;;;;;;;;;;;;;;;;;4400790;32;19965;-95
2021/04/26 05:42:05;;;;;;;;;;;;;;;;;;4401144;32;19989;-94
2021/04/26 05:44:39;;;;;;;;;;;;;;;;;;4404676;32;19939;-96
2021/04/26 05:47:21;;;;;;;;;;;;;;;;;;4398163;32;19943;-96
2021/04/26 05:50:28;;;;;;;;;;;;;;;;;;4397949;32;19994;-95
2021/04/26 05:52:58;;;;;;;;;;;;;;;;;;4404175;32;20000;-94
2021/04/26 05:55:47;;;;;;;;;;;;;;;;;;4406497;32;20002;-95
2021/04/26 05:58:26;;;;;;;;;;;;;;;;;;4402504;32;19969;-95
2021/04/26 06:00:57;;;;;;;;;;;;;;;;;;4401771;32;19942;-96
2021/04/26 06:03:32;;;;;;;;;;;;;;;;;;4407834;32;19990;-96
2021/04/26 06:06:56;;;;;;;;;;;;;;;;;;4356630;27;20089;-83
2021/04/26 06:09:24;;;;;;;;;;;;;;;;;;4360775;32;19998;-82
2021/04/26 06:11:52;;;;;;;;;;;;;;;;;;4367137;32;20404;-84
2021/04/26 06:14:20;;;;;;;;;;;;;;;;;;4367323;32;19998;-84
2021/04/26 06:16:48;;;;;;;;;;;;;;;;;;4368032;32;20317;-85
2021/04/26 06:19:16;;;;;;;;;;;;;;;;;;4368814;32;20518;-84
2021/04/26 06:21:46;;;;;;;;;;;;;;;;;;4363489;32;20022;-85
2021/04/26 06:24:15;;;;;;;;;;;;;;;;;;4367133;32;20010;-84
2021/04/26 06:26:43;;;;;;;;;;;;;;;;;;4368252;32;20510;-85
2021/04/26 06:29:11;;;;;;;;;;;;;;;;;;4368616;32;19946;-84
2021/04/26 06:31:39;;;;;;;;;;;;;;;;;;4368964;32;19969;-84
2021/04/26 06:34:06;;;;;;;;;;;;;;;;;;4378306;32;20312;-85
2021/04/26 06:36:34;;;;;;;;;;;;;;;;;;4365501;32;19987;-85
2021/04/26 06:39:03;;;;;;;;;;;;;;;;;;4370101;32;20018;-83
2021/04/26 06:41:31;;;;;;;;;;;;;;;;;;4372142;32;20632;-85
2021/04/26 06:43:58;;;;;;;;;;;;;;;;;;4361472;32;20064;-85
2021/04/26 06:46:27;;;;;;;;;;;;;;;;;;4362232;32;19970;-84
2021/04/26 06:48:55;;;;;;;;;;;;;;;;;;4365958;32;20001;-86
2021/04/26 06:51:23;;;;;;;;;;;;;;;;;;4361249;32;20049;-86
2021/04/26 06:53:52;;;;;;;;;;;;;;;;;;4358327;32;20457;-86
2021/04/26 06:56:20;;;;;;;;;;;;;;;;;;4373266;32;19958;-85
2021/04/26 06:58:47;;;;;;;;;;;;;;;;;;4375140;32;19974;-86
2021/04/26 07:01:16;;;;;;;;;;;;;;;;;;4360479;32;20431;-86
2021/04/26 07:03:46;;;;;;;;;;;;;;;;;;4359380;32;20053;-85
2021/04/26 07:06:14;;;;;;;;;;;;;;;;;;4363530;32;19959;-84
2021/04/26 07:08:43;;;;;;;;;;;;;;;;;;4368271;32;20012;-85
2021/04/26 07:11:10;;;;;;;;;;;;;;;;;;4363788;32;20000;-86
2021/04/26 07:13:38;;;;;;;;;;;;;;;;;;4362727;32;20478;-85
2021/04/26 07:16:07;;;;;;;;;;;;;;;;;;4371785;32;20314;-85
2021/04/26 07:18:35;;;;;;;;;;;;;;;;;;4372887;32;19962;-84
2021/04/26 07:21:04;;;;;;;;;;;;;;;;;;4379260;32;20338;-84
2021/04/26 07:23:32;;;;;;;;;;;;;;;;;;4382305;32;20013;-84
2021/04/26 07:26:01;;;;;;;;;;;;;;;;;;4382645;32;20002;-86
2021/04/26 07:28:29;;;;;;;;;;;;;;;;;;4369241;32;19951;-84
2021/04/26 07:30:58;;;;;;;;;;;;;;;;;;4378183;32;19993;-84
2021/04/26 07:33:26;;;;;;;;;;;;;;;;;;4381798;32;20010;-85
2021/04/26 07:35:54;;;;;;;;;;;;;;;;;;4384279;32;19958;-84
2021/04/26 07:38:22;;;;;;;;;;;;;;;;;;4378867;32;20023;-84
2021/04/26 07:40:50;;;;;;;;;;;;;;;;;;4371866;32;19951;-84
2021/04/26 07:43:18;;;;;;;;;;;;;;;;;;4377029;32;20327;-85
2021/04/26 07:45:46;;;;;;;;;;;;;;;;;;4381033;32;19948;-85
2021/04/26 07:48:17;;;;;;;;;;;;;;;;;;4373195;32;20360;-84
2021/04/26 07:50:45;;;;;;;;;;;;;;;;;;4374062;32;19975;-84
2021/04/26 07:53:13;;;;;;;;;;;;;;;;;;4382118;32;20000;-84
2021/04/26 07:55:41;;;;;;;;;;;;;;;;;;4376156;32;20016;-85
2021/04/26 07:58:10;;;;;;;;;;;;;;;;;;4381097;32;20016;-85
2021/04/26 08:00:58;;;;;;;;;;;;;;;;;;4367870;32;19974;-86
2021/04/26 08:03:46;;;;;;;;;;;;;;;;;;4353464;32;19973;-84
2021/04/26 08:06:34;;;;;;;;;;;;;;;;;;4360531;32;19951;-85
2021/04/26 08:09:22;;;;;;;;;;;;;;;;;;4355462;32;19971;-85
2021/04/26 08:12:10;;;;;;;;;;;;;;;;;;4352177;32;19962;-85
2021/04/26 08:14:58;;;;;;;;;;;;;;;;;;4352475;32;20038;-86
2021/04/26 08:17:46;;;;;;;;;;;;;;;;;;4367691;32;19975;-86
2021/04/26 08:20:35;;;;;;;;;;;;;;;;;;4359137;32;19966;-86
2021/04/26 08:23:24;;;;;;;;;;;;;;;;;;4347921;32;20036;-86
2021/04/26 08:26:12;;;;;;;;;;;;;;;;;;4354876;32;20022;-84
2021/04/26 08:29:00;;;;;;;;;;;;;;;;;;4345301;32;20020;-84
2021/04/26 08:31:48;;;;;;;;;;;;;;;;;;4348580;32;20713;-85
2021/04/26 08:34:36;;;;;;;;;;;;;;;;;;4357317;32;20503;-84
2021/04/26 08:37:24;;;;;;;;;;;;;;;;;;4364716;32;20327;-85
2021/04/26 08:40:12;;;;;;;;;;;;;;;;;;4349772;32;20018;-85
2021/04/26 08:43:00;;;;;;;;;;;;;;;;;;4360572;32;20385;-86
2021/04/26 08:45:48;;;;;;;;;;;;;;;;;;4358374;32;20048;-85
2021/04/26 08:48:36;;;;;;;;;;;;;;;;;;4353056;32;19973;-85
2021/04/26 08:51:25;;;;;;;;;;;;;;;;;;4353364;32;20002;-86
2021/04/26 08:54:13;;;;;;;;;;;;;;;;;;4353689;32;20456;-85
2021/04/26 08:57:02;;;;;;;;;;;;;;;;;;4354012;32;20044;-86
2021/04/26 08:59:50;;;;;;;;;;;;;;;;;;4357254;32;20034;-86
2021/04/26 09:02:38;;;;;;;;;;;;;;;;;;4350757;32;20053;-86
2021/04/26 09:05:08;;;;;;;;;;;;;;;;;;4380183;32;20016;-85
2021/04/26 09:07:38;;;;;;;;;;;;;;;;;;4375469;32;19959;-84
2021/04/26 09:10:08;;;;;;;;;;;;;;;;;;4372410;32;20008;-84
2021/04/26 09:12:40;;;;;;;;;;;;;;;;;;4371764;32;19973;-84
2021/04/26 09:15:10;;;;;;;;;;;;;;;;;;4372999;32;20007;-84
2021/04/26 09:17:40;;;;;;;;;;;;;;;;;;4370649;32;20698;-84
2021/04/26 09:20:11;;;;;;;;;;;;;;;;;;4370480;32;20386;-84
2021/04/26 09:22:39;;;;;;;;;;;;;;;;;;4375981;32;19966;-84
2021/04/26 09:25:10;;;;;;;;;;;;;;;;;;4382641;32;20321;-84
2021/04/26 09:27:40;;;;;;;;;;;;;;;;;;4371974;32;19954;-84
2021/04/26 09:30:10;;;;;;;;;;;;;;;;;;4376618;32;19961;-84
2021/04/26 09:32:40;;;;;;;;;;;;;;;;;;4374059;32;19958;-83
2021/04/26 09:35:08;;;;;;;;;;;;;;;;;;4384278;32;19955;-83
2021/04/26 09:37:36;;;;;;;;;;;;;;;;;;4385419;32;20603;-83
2021/04/26 09:40:07;;;;;;;;;;;;;;;;;;4372469;32;20056;-84
2021/04/26 09:42:37;;;;;;;;;;;;;;;;;;4381896;32;19969;-83
2021/04/26 09:45:09;;;;;;;;;;;;;;;;;;4377662;32;20010;-84
2021/04/26 09:47:39;;;;;;;;;;;;;;;;;;4367278;32;20023;-84
2021/04/26 09:50:09;;;;;;;;;;;;;;;;;;4368384;32;19955;-85
2021/04/26 09:52:37;;;;;;;;;;;;;;;;;;4364809;32;20044;-85
2021/04/26 09:55:04;;;;;;;;;;;;;;;;;;4369736;32;19994;-85
2021/04/26 09:57:32;;;;;;;;;;;;;;;;;;4370972;32;20323;-85
2021/04/26 10:00:00;;;;;;;;;;;;;;;;;;4370995;32;19972;-84
2021/04/26 10:02:28;;;;;;;;;;;;;;;;;;4366682;32;20002;-85
2021/04/26 10:04:56;;;;;;;;;;;;;;;;;;4367704;32;20373;-84
2021/04/26 10:07:24;;;;;;;;;;;;;;;;;;4373098;32;19978;-84
2021/04/26 10:09:52;;;;;;;;;;;;;;;;;;4382864;32;20394;-83
2021/04/26 10:12:20;;;;;;;;;;;;;;;;;;4368395;32;20034;-83
2021/04/26 10:14:48;;;;;;;;;;;;;;;;;;4363649;32;20033;-85
2021/04/26 10:17:36;;;;;;;;;;;;;;;;;;4366072;32;19965;-84
2021/04/26 10:20:04;;;;;;;;;;;;;;;;;;4366837;32;19955;-84
2021/04/26 10:22:32;;;;;;;;;;;;;;;;;;4366669;32;20020;-84
2021/04/26 10:25:01;;;;;;;;;;;;;;;;;;4361959;32;20033;-85
2021/04/26 10:27:30;;;;;;;;;;;;;;;;;;4368117;32;20020;-85
2021/04/26 10:29:57;;;;;;;;;;;;;;;;;;4367592;32;20447;-85
2021/04/26 10:32:26;;;;;;;;;;;;;;;;;;4365751;32;20420;-84
2021/04/26 10:34:54;;;;;;;;;;;;;;;;;;4364599;32;20023;-84
2021/04/26 10:37:21;;;;;;;;;;;;;;;;;;4364988;32;19989;-85
2021/04/26 10:39:50;;;;;;;;;;;;;;;;;;4371015;32;20043;-84
2021/04/26 10:42:18;;;;;;;;;;;;;;;;;;4372111;32;20001;-85
2021/04/26 10:44:47;;;;;;;;;;;;;;;;;;4360556;32;20025;-85
2021/04/26 10:47:16;;;;;;;;;;;;;;;;;;4363115;32;20142;-85
2021/04/26 10:49:47;;;;;;;;;;;;;;;;;;4373100;32;20312;-85
2021/04/26 10:52:15;;;;;;;;;;;;;;;;;;4362176;32;20279;-85
2021/04/26 10:54:43;;;;;;;;;;;;;;;;;;4356434;32;20021;-85
2021/04/26 10:57:11;;;;;;;;;;;;;;;;;;4363090;32;20033;-86
2021/04/26 10:59:40;;;;;;;;;;;;;;;;;;4359505;32;20061;-85
2021/04/26 11:02:08;;;;;;;;;;;;;;;;;;4367928;32;20318;-85
2021/04/26 11:04:35;;;;;;;;;;;;;;;;;;4365365;32;20026;-85
2021/04/26 11:07:04;;;;;;;;;;;;;;;;;;4374567;32;20340;-85
2021/04/26 11:09:40;;;;;;;;;;;;;;;;;;4382891;32;19973;-86
2021/04/26 11:12:08;;;;;;;;;;;;;;;;;;4366433;32;19967;-85
2021/04/26 11:14:36;;;;;;;;;;;;;;;;;;4370550;32;20014;-85
2021/04/26 11:17:04;;;;;;;;;;;;;;;;;;4374880;32;20026;-85
2021/04/26 11:19:33;;;;;;;;;;;;;;;;;;4370170;32;20015;-84
2021/04/26 11:22:00;;;;;;;;;;;;;;;;;;4369035;32;20505;-85
2021/04/26 11:24:30;;;;;;;;;;;;;;;;;;4367766;32;19970;-85
2021/04/26 11:26:58;;;;;;;;;;;;;;;;;;4371833;32;20342;-85
2021/04/26 11:29:25;;;;;;;;;;;;;;;;;;4372522;32;20133;-85
2021/04/26 11:31:53;;;;;;;;;;;;;;;;;;4372281;32;20030;-85
2021/04/26 11:34:22;;;;;;;;;;;;;;;;;;4368978;32;19988;-85
2021/04/26 11:36:49;;;;;;;;;;;;;;;;;;4369801;32;19967;-85
2021/04/26 11:39:17;;;;;;;;;;;;;;;;;;4377412;32;20034;-86
2021/04/26 11:41:45;;;;;;;;;;;;;;;;;;4371482;32;20385;-85
2021/04/26 11:44:13;;;;;;;;;;;;;;;;;;4367927;32;20372;-86
2021/04/26 11:46:41;;;;;;;;;;;;;;;;;;4371559;32;19955;-85
2021/04/26 11:49:09;;;;;;;;;;;;;;;;;;4371065;32;20113;-84
2021/04/26 11:51:36;;;;;;;;;;;;;;;;;;4373772;32;19970;-85
2021/04/26 11:54:04;;;;;;;;;;;;;;;;;;4378143;32;19992;-85
2021/04/26 11:56:32;;;;;;;;;;;;;;;;;;4381457;32;20248;-84
2021/04/26 11:59:03;;;;;;;;;;;;;;;;;;4373713;32;20176;-85
2021/04/26 12:01:30;;;;;;;;;;;;;;;;;;4374526;32;19984;-85
2021/04/26 12:03:59;;;;;;;;;;;;;;;;;;4382133;32;20286;-84
2021/04/26 12:06:28;;;;;;;;;;;;;;;;;;4372250;32;19989;-84
2021/04/26 12:08:57;;;;;;;;;;;;;;;;;;4379743;32;20004;-84
2021/04/26 12:11:25;;;;;;;;;;;;;;;;;;4385711;32;20034;-85
2021/04/26 12:13:53;;;;;;;;;;;;;;;;;;4397165;32;19958;-84
2021/04/26 12:16:24;;;;;;;;;;;;;;;;;;4384352;32;19987;-84
2021/04/26 12:18:52;;;;;;;;;;;;;;;;;;4381202;32;20004;-85
2021/04/26 12:21:20;;;;;;;;;;;;;;;;;;4375273;32;20411;-85
2021/04/26 12:23:49;;;;;;;;;;;;;;;;;;4373775;32;19999;-85
2021/04/26 12:26:18;;;;;;;;;;;;;;;;;;4381295;32;19998;-84
2021/04/26 12:28:48;;;;;;;;;;;;;;;;;;4385952;32;19993;-85
2021/04/26 12:31:15;;;;;;;;;;;;;;;;;;4382351;32;19982;-84
2021/04/26 12:33:43;;;;;;;;;;;;;;;;;;4382461;32;20013;-84
2021/04/26 12:36:11;;;;;;;;;;;;;;;;;;4376307;32;20007;-84
2021/04/26 12:38:39;;;;;;;;;;;;;;;;;;4376800;32;19993;-84
2021/04/26 12:41:07;;;;;;;;;;;;;;;;;;4368597;32;20018;-84
2021/04/26 12:43:34;;;;;;;;;;;;;;;;;;4371452;32;20050;-84
2021/04/26 12:46:02;;;;;;;;;;;;;;;;;;4370114;32;20024;-84
2021/04/26 12:48:30;;;;;;;;;;;;;;;;;;4370639;32;20005;-85
2021/04/26 12:50:57;;;;;;;;;;;;;;;;;;4366428;32;20304;-84
2021/04/26 12:53:25;;;;;;;;;;;;;;;;;;4369785;32;19951;-85
2021/04/26 12:55:54;;;;;;;;;;;;;;;;;;4367019;32;19994;-85
2021/04/26 12:58:22;;;;;;;;;;;;;;;;;;4379130;32;20295;-84
2021/04/26 13:00:49;;;;;;;;;;;;;;;;;;4367541;32;19994;-84
2021/04/26 13:03:20;;;;;;;;;;;;;;;;;;4372743;32;20629;-85
2021/04/26 13:05:48;;;;;;;;;;;;;;;;;;4371037;32;20064;-84
2021/04/26 13:08:16;;;;;;;;;;;;;;;;;;4372156;32;19958;-84
2021/04/26 13:10:43;;;;;;;;;;;;;;;;;;4378702;32;20388;-84
2021/04/26 13:13:11;;;;;;;;;;;;;;;;;;4374959;32;20108;-84
2021/04/26 13:15:39;;;;;;;;;;;;;;;;;;4365296;32;20043;-84
2021/04/26 13:18:07;;;;;;;;;;;;;;;;;;4364072;32;19973;-83
2021/04/26 13:20:35;;;;;;;;;;;;;;;;;;4366903;32;20006;-83
2021/04/26 13:23:03;;;;;;;;;;;;;;;;;;4371521;32;20002;-83
2021/04/26 13:25:32;;;;;;;;;;;;;;;;;;4367846;32;20120;-84
2021/04/26 13:28:00;;;;;;;;;;;;;;;;;;4383926;32;19989;-84
2021/04/26 13:30:27;;;;;;;;;;;;;;;;;;4369898;32;20081;-84
2021/04/26 13:32:55;;;;;;;;;;;;;;;;;;4366029;32;20637;-84
2021/04/26 13:35:25;;;;;;;;;;;;;;;;;;4367074;32;20042;-83
2021/04/26 13:37:52;;;;;;;;;;;;;;;;;;4368974;32;19995;-84
2021/04/26 13:40:20;;;;;;;;;;;;;;;;;;4367590;32;20010;-84
2021/04/26 13:42:50;;;;;;;;;;;;;;;;;;4361537;32;20022;-85
2021/04/26 13:45:18;;;;;;;;;;;;;;;;;;4364845;32;20084;-84
2021/04/26 13:47:48;;;;;;;;;;;;;;;;;;4366956;32;20302;-82
2021/04/26 13:50:15;;;;;;;;;;;;;;;;;;4367656;32;20006;-84
2021/04/26 13:52:45;;;;;;;;;;;;;;;;;;4369358;32;19963;-84
2021/04/26 13:55:13;;;;;;;;;;;;;;;;;;4366612;32;20014;-84
2021/04/26 13:57:40;;;;;;;;;;;;;;;;;;4366587;32;19963;-84
2021/04/26 14:00:08;;;;;;;;;;;;;;;;;;4382128;32;19959;-84
2021/04/26 14:02:36;;;;;;;;;;;;;;;;;;4364787;32;20402;-84
2021/04/26 14:05:04;;;;;;;;;;;;;;;;;;4368481;32;19965;-84
2021/04/26 14:07:32;;;;;;;;;;;;;;;;;;4366892;32;20083;-84
2021/04/26 14:10:00;;;;;;;;;;;;;;;;;;4367102;32;19994;-84
2021/04/26 14:12:27;;;;;;;;;;;;;;;;;;4363787;32;20069;-84
2021/04/26 14:14:55;;;;;;;;;;;;;;;;;;4375430;32;19951;-84
2021/04/26 14:17:24;;;;;;;;;;;;;;;;;;4384221;32;19951;-83
2021/04/26 14:19:51;;;;;;;;;;;;;;;;;;4375042;32;20377;-84
2021/04/26 14:22:19;;;;;;;;;;;;;;;;;;4381048;32;19946;-84
2021/04/26 14:24:49;;;;;;;;;;;;;;;;;;4379578;32;19958;-84
2021/04/26 14:27:18;;;;;;;;;;;;;;;;;;4369379;32;19955;-84
2021/04/26 14:29:46;;;;;;;;;;;;;;;;;;4369068;32;19956;-84
2021/04/26 14:32:14;;;;;;;;;;;;;;;;;;4366090;32;20010;-83
2021/04/26 14:34:43;;;;;;;;;;;;;;;;;;4366347;32;20304;-85
2021/04/26 14:37:10;;;;;;;;;;;;;;;;;;4374872;32;20297;-84
2021/04/26 14:39:38;;;;;;;;;;;;;;;;;;4380189;32;19954;-84
2021/04/26 14:42:06;;;;;;;;;;;;;;;;;;4379751;32;20039;-84
2021/04/26 14:44:34;;;;;;;;;;;;;;;;;;4363031;32;19971;-84
2021/04/26 14:47:03;;;;;;;;;;;;;;;;;;4367517;32;20043;-84
2021/04/26 14:49:30;;;;;;;;;;;;;;;;;;4364155;32;20002;-84
2021/04/26 14:51:58;;;;;;;;;;;;;;;;;;4363893;32;19994;-84
2021/04/26 14:54:26;;;;;;;;;;;;;;;;;;4363828;32;20529;-84
2021/04/26 14:56:53;;;;;;;;;;;;;;;;;;4383863;32;19962;-84
2021/04/26 14:59:22;;;;;;;;;;;;;;;;;;4367372;32;20636;-85
2021/04/26 15:01:50;;;;;;;;;;;;;;;;;;4361456;32;20405;-86
2021/04/26 15:04:17;;;;;;;;;;;;;;;;;;4366724;32;20341;-84
2021/04/26 15:06:45;;;;;;;;;;;;;;;;;;4364052;32;20688;-84
2021/04/26 15:09:13;;;;;;;;;;;;;;;;;;4375016;32;20226;-84
2021/04/26 15:11:46;;;;;;;;;;;;;;;;;;4367211;32;20367;-85
2021/04/26 15:14:16;;;;;;;;;;;;;;;;;;4364322;32;20013;-85
2021/04/26 15:16:44;;;;;;;;;;;;;;;;;;4369701;32;20320;-84
2021/04/26 15:19:11;;;;;;;;;;;;;;;;;;4365496;32;19951;-85
2021/04/26 15:21:39;;;;;;;;;;;;;;;;;;4365106;32;20022;-84
2021/04/26 15:24:07;;;;;;;;;;;;;;;;;;4366225;32;20028;-85
2021/04/26 15:26:35;;;;;;;;;;;;;;;;;;4363010;32;19951;-84
2021/04/26 15:29:03;;;;;;;;;;;;;;;;;;4362802;32;20016;-84
2021/04/26 15:31:31;;;;;;;;;;;;;;;;;;4365038;32;20318;-84
2021/04/26 15:33:59;;;;;;;;;;;;;;;;;;4366662;32;20350;-84
2021/04/26 15:36:27;;;;;;;;;;;;;;;;;;4364131;32;20010;-83
2021/04/26 15:38:57;;;;;;;;;;;;;;;;;;4370534;32;20018;-84
2021/04/26 15:41:27;;;;;;;;;;;;;;;;;;4364363;32;21228;-83
2021/04/26 15:43:55;;;;;;;;;;;;;;;;;;4364284;32;19978;-84
2021/04/26 15:46:23;;;;;;;;;;;;;;;;;;4367953;32;20166;-84
2021/04/26 15:48:51;;;;;;;;;;;;;;;;;;4368455;32;19959;-84
2021/04/26 15:51:19;;;;;;;;;;;;;;;;;;4364632;32;20052;-84
2021/04/26 15:53:47;;;;;;;;;;;;;;;;;;4370911;32;19968;-84
2021/04/26 15:56:14;;;;;;;;;;;;;;;;;;4363954;32;20080;-85
2021/04/26 15:58:42;;;;;;;;;;;;;;;;;;4368810;32;19954;-84
2021/04/26 16:01:10;;;;;;;;;;;;;;;;;;4367429;32;19973;-84
2021/04/26 16:03:37;;;;;;;;;;;;;;;;;;4368618;32;20006;-83
2021/04/26 16:06:05;;;;;;;;;;;;;;;;;;4381590;32;20591;-86
2021/04/26 16:08:35;;;;;;;;;;;;;;;;;;4365525;32;19985;-84
2021/04/26 16:11:03;;;;;;;;;;;;;;;;;;4377953;32;20001;-84
2021/04/26 16:13:31;;;;;;;;;;;;;;;;;;4368014;32;19989;-84
2021/04/26 16:15:58;;;;;;;;;;;;;;;;;;4368210;32;19975;-84
2021/04/26 16:18:27;;;;;;;;;;;;;;;;;;4368056;32;19955;-84
2021/04/26 16:20:56;;;;;;;;;;;;;;;;;;4372988;32;19959;-84
2021/04/26 16:23:24;;;;;;;;;;;;;;;;;;4371628;32;20003;-84
2021/04/26 16:25:52;;;;;;;;;;;;;;;;;;4377835;32;19955;-85
2021/04/26 16:28:21;;;;;;;;;;;;;;;;;;4372570;32;19978;-84
2021/04/26 16:30:49;;;;;;;;;;;;;;;;;;4371077;32;19959;-84
2021/04/26 16:33:17;;;;;;;;;;;;;;;;;;4370838;32;20411;-83
2021/04/26 16:35:47;;;;;;;;;;;;;;;;;;4379022;32;20380;-84
2021/04/26 16:38:15;;;;;;;;;;;;;;;;;;4374531;32;19963;-84
2021/04/26 16:40:43;;;;;;;;;;;;;;;;;;4378028;32;20093;-84
2021/04/26 16:43:10;;;;;;;;;;;;;;;;;;4379484;32;19963;-83
2021/04/26 16:45:41;;;;;;;;;;;;;;;;;;4373973;32;19954;-83
2021/04/26 16:48:09;;;;;;;;;;;;;;;;;;4368910;32;20025;-84
2021/04/26 16:50:37;;;;;;;;;;;;;;;;;;4382640;32;20326;-83
2021/04/26 16:53:05;;;;;;;;;;;;;;;;;;4381178;32;19951;-83
2021/04/26 16:55:33;;;;;;;;;;;;;;;;;;4380946;32;20285;-84
2021/04/26 16:58:02;;;;;;;;;;;;;;;;;;4367240;32;20011;-84
2021/04/26 17:00:34;;;;;;;;;;;;;;;;;;4369777;32;20001;-83
2021/04/26 17:03:02;;;;;;;;;;;;;;;;;;4370042;32;19977;-84
2021/04/26 17:05:31;;;;;;;;;;;;;;;;;;4371169;32;20293;-84
2021/04/26 17:07:59;;;;;;;;;;;;;;;;;;4362930;32;19965;-84
2021/04/26 17:10:27;;;;;;;;;;;;;;;;;;4373970;32;19989;-84
2021/04/26 17:12:57;;;;;;;;;;;;;;;;;;4370609;32;20006;-84